sensor_id;sensor_type;location;lat;lon;timestamp;temperature;humidity
19654;DHT22;9975;48.046;7.804;2023-08-17T01:56:30;20.00;99.90
19654;DHT22;9975;48.046;7.804;2023-08-17T01:58:56;20.10;99.90
19654;DHT22;9975;48.046;7.804;2023-08-17T02:01:21;20.10;99.90
19654;DHT22;9975;48.046;7.804;2023-08-17T02:03:47;20.00;99.90
19654;DHT22;9975;48.046;7.804;2023-08-17T02:06:13;20.00;99.90
19654;DHT22;9975;48.046;7.804;2023-08-17T02:08:38;20.00;99.90
19654;DHT22;9975;48.046;7.804;2023-08-17T02:11:04;20.00;99.90
19654;DHT22;9975;48.046;7.804;2023-08-17T02:13:30;20.00;99.90
19654;DHT22;9975;48.046;7.804;2023-08-17T02:15:55;20.00;99.90
19654;DHT22;9975;48.046;7.804;2023-08-17T02:18:21;20.00;99.90
19654;DHT22;9975;48.046;7.804;2023-08-17T02:20:47;20.10;99.90
19654;DHT22;9975;48.046;7.804;2023-08-17T02:23:12;20.10;99.90
19654;DHT22;9975;48.046;7.804;2023-08-17T02:25:41;20.00;99.90
19654;DHT22;9975;48.046;7.804;2023-08-17T02:28:07;20.10;99.90
19654;DHT22;9975;48.046;7.804;2023-08-17T02:30:32;20.10;99.90
19654;DHT22;9975;48.046;7.804;2023-08-17T02:32:58;20.10;99.90
19654;DHT22;9975;48.046;7.804;2023-08-17T02:35:24;20.10;99.90
19654;DHT22;9975;48.046;7.804;2023-08-17T02:37:49;20.10;99.90
19654;DHT22;9975;48.046;7.804;2023-08-17T02:40:15;20.10;99.90
19654;DHT22;9975;48.046;7.804;2023-08-17T02:42:41;20.10;99.90
19654;DHT22;9975;48.046;7.804;2023-08-17T02:45:08;20.10;99.90
19654;DHT22;9975;48.046;7.804;2023-08-17T02:47:33;20.10;99.90
19654;DHT22;9975;48.046;7.804;2023-08-17T02:49:59;20.10;99.90
19654;DHT22;9975;48.046;7.804;2023-08-17T02:52:25;20.10;99.90
19654;DHT22;9975;48.046;7.804;2023-08-17T02:54:50;20.10;99.90
19654;DHT22;9975;48.046;7.804;2023-08-17T02:57:16;20.10;99.90
19654;DHT22;9975;48.046;7.804;2023-08-17T02:59:41;20.10;99.90
19654;DHT22;9975;48.046;7.804;2023-08-17T03:02:07;20.10;99.90
19654;DHT22;9975;48.046;7.804;2023-08-17T03:04:33;20.10;99.90
19654;DHT22;9975;48.046;7.804;2023-08-17T03:06:58;20.10;99.90
19654;DHT22;9975;48.046;7.804;2023-08-17T03:09:24;20.00;99.90
19654;DHT22;9975;48.046;7.804;2023-08-17T03:11:50;20.00;99.90
19654;DHT22;9975;48.046;7.804;2023-08-17T03:14:16;20.00;99.90
19654;DHT22;9975;48.046;7.804;2023-08-17T03:16:41;19.90;99.90
19654;DHT22;9975;48.046;7.804;2023-08-17T03:19:07;19.90;99.90
19654;DHT22;9975;48.046;7.804;2023-08-17T03:21:37;20.00;99.90
19654;DHT22;9975;48.046;7.804;2023-08-17T03:24:02;20.00;99.90
19654;DHT22;9975;48.046;7.804;2023-08-17T03:26:28;20.00;99.90
19654;DHT22;9975;48.046;7.804;2023-08-17T03:28:54;20.10;99.90
19654;DHT22;9975;48.046;7.804;2023-08-17T03:31:20;20.10;99.90
19654;DHT22;9975;48.046;7.804;2023-08-17T03:33:47;20.10;99.90
19654;DHT22;9975;48.046;7.804;2023-08-17T03:36:12;20.20;99.90
19654;DHT22;9975;48.046;7.804;2023-08-17T03:38:38;20.20;99.90
19654;DHT22;9975;48.046;7.804;2023-08-17T03:41:05;20.10;99.90
19654;DHT22;9975;48.046;7.804;2023-08-17T03:43:32;20.20;99.90
19654;DHT22;9975;48.046;7.804;2023-08-17T03:45:58;20.20;99.90
19654;DHT22;9975;48.046;7.804;2023-08-17T03:48:24;20.20;99.90
19654;DHT22;9975;48.046;7.804;2023-08-17T03:50:54;20.10;99.90
19654;DHT22;9975;48.046;7.804;2023-08-17T03:53:20;20.20;99.90
19654;DHT22;9975;48.046;7.804;2023-08-17T03:55:47;20.20;99.90
19654;DHT22;9975;48.046;7.804;2023-08-17T03:58:13;20.30;99.90
19654;DHT22;9975;48.046;7.804;2023-08-17T04:00:38;20.30;99.90
19654;DHT22;9975;48.046;7.804;2023-08-17T04:03:06;20.20;99.90
19654;DHT22;9975;48.046;7.804;2023-08-17T04:05:32;20.30;99.90
19654;DHT22;9975;48.046;7.804;2023-08-17T04:08:06;20.30;99.90
19654;DHT22;9975;48.046;7.804;2023-08-17T04:10:32;20.20;99.90
19654;DHT22;9975;48.046;7.804;2023-08-17T04:12:58;20.20;99.90
19654;DHT22;9975;48.046;7.804;2023-08-17T04:15:23;20.10;99.90
19654;DHT22;9975;48.046;7.804;2023-08-17T04:17:49;20.10;99.90
19654;DHT22;9975;48.046;7.804;2023-08-17T04:20:14;20.00;99.90
19654;DHT22;9975;48.046;7.804;2023-08-17T04:22:40;20.00;99.90
19654;DHT22;9975;48.046;7.804;2023-08-17T04:25:06;20.00;99.90
19654;DHT22;9975;48.046;7.804;2023-08-17T04:27:33;20.00;99.90
19654;DHT22;9975;48.046;7.804;2023-08-17T04:29:59;19.90;99.90
19654;DHT22;9975;48.046;7.804;2023-08-17T04:32:25;20.00;99.90
19654;DHT22;9975;48.046;7.804;2023-08-17T04:34:50;19.90;99.90
19654;DHT22;9975;48.046;7.804;2023-08-17T04:37:16;19.90;99.90
19654;DHT22;9975;48.046;7.804;2023-08-17T04:39:42;19.80;99.90
19654;DHT22;9975;48.046;7.804;2023-08-17T04:42:09;20.20;99.90
19654;DHT22;9975;48.046;7.804;2023-08-17T04:44:34;19.80;99.90
19654;DHT22;9975;48.046;7.804;2023-08-17T04:47:00;19.70;99.90
19654;DHT22;9975;48.046;7.804;2023-08-17T04:49:26;19.70;99.90
19654;DHT22;9975;48.046;7.804;2023-08-17T04:51:52;19.80;99.90
19654;DHT22;9975;48.046;7.804;2023-08-17T04:54:17;19.80;99.90
19654;DHT22;9975;48.046;7.804;2023-08-17T04:56:43;19.80;99.90
19654;DHT22;9975;48.046;7.804;2023-08-17T04:59:09;19.80;99.90
19654;DHT22;9975;48.046;7.804;2023-08-17T05:01:34;19.80;99.90
19654;DHT22;9975;48.046;7.804;2023-08-17T05:04:01;19.90;99.90
19654;DHT22;9975;48.046;7.804;2023-08-17T05:06:28;19.90;99.90
19654;DHT22;9975;48.046;7.804;2023-08-17T05:08:54;20.00;99.90
19654;DHT22;9975;48.046;7.804;2023-08-17T05:11:19;19.90;99.90
19654;DHT22;9975;48.046;7.804;2023-08-17T05:13:45;20.00;99.90
19654;DHT22;9975;48.046;7.804;2023-08-17T05:16:11;20.00;99.90
19654;DHT22;9975;48.046;7.804;2023-08-17T05:18:36;19.90;99.90
19654;DHT22;9975;48.046;7.804;2023-08-17T05:21:02;19.90;99.90
19654;DHT22;9975;48.046;7.804;2023-08-17T05:23:27;19.90;99.90
19654;DHT22;9975;48.046;7.804;2023-08-17T05:25:53;20.00;99.90
19654;DHT22;9975;48.046;7.804;2023-08-17T05:28:19;20.00;99.90
19654;DHT22;9975;48.046;7.804;2023-08-17T05:30:44;20.00;99.90
19654;DHT22;9975;48.046;7.804;2023-08-17T05:33:10;19.90;99.90
19654;DHT22;9975;48.046;7.804;2023-08-17T05:35:36;19.90;99.90
19654;DHT22;9975;48.046;7.804;2023-08-17T05:38:02;19.90;99.90
19654;DHT22;9975;48.046;7.804;2023-08-17T05:40:30;20.00;99.90
19654;DHT22;9975;48.046;7.804;2023-08-17T05:42:56;20.00;99.90
19654;DHT22;9975;48.046;7.804;2023-08-17T05:45:22;20.00;99.90
19654;DHT22;9975;48.046;7.804;2023-08-17T05:47:47;20.10;99.90
19654;DHT22;9975;48.046;7.804;2023-08-17T05:50:13;20.10;99.90
19654;DHT22;9975;48.046;7.804;2023-08-17T05:52:40;20.10;99.90
19654;DHT22;9975;48.046;7.804;2023-08-17T05:55:05;20.10;99.90
19654;DHT22;9975;48.046;7.804;2023-08-17T05:57:31;20.10;99.90
19654;DHT22;9975;48.046;7.804;2023-08-17T05:59:57;20.10;99.90
19654;DHT22;9975;48.046;7.804;2023-08-17T06:02:22;20.20;99.90
19654;DHT22;9975;48.046;7.804;2023-08-17T06:04:48;20.10;99.90
19654;DHT22;9975;48.046;7.804;2023-08-17T06:07:13;20.20;99.90
19654;DHT22;9975;48.046;7.804;2023-08-17T06:09:39;20.30;99.90
19654;DHT22;9975;48.046;7.804;2023-08-17T06:12:05;20.30;99.90
19654;DHT22;9975;48.046;7.804;2023-08-17T06:14:32;20.30;99.90
19654;DHT22;9975;48.046;7.804;2023-08-17T06:16:58;20.20;99.90
19654;DHT22;9975;48.046;7.804;2023-08-17T06:19:24;20.10;99.90
19654;DHT22;9975;48.046;7.804;2023-08-17T06:21:49;20.00;99.90
19654;DHT22;9975;48.046;7.804;2023-08-17T06:24:15;20.00;99.90
19654;DHT22;9975;48.046;7.804;2023-08-17T06:26:40;20.00;99.90
19654;DHT22;9975;48.046;7.804;2023-08-17T06:29:06;20.00;99.90
19654;DHT22;9975;48.046;7.804;2023-08-17T06:31:32;20.10;99.90
19654;DHT22;9975;48.046;7.804;2023-08-17T06:33:58;20.00;99.90
19654;DHT22;9975;48.046;7.804;2023-08-17T06:36:24;20.10;99.90
19654;DHT22;9975;48.046;7.804;2023-08-17T06:38:49;20.10;99.90
19654;DHT22;9975;48.046;7.804;2023-08-17T06:41:16;20.10;99.90
19654;DHT22;9975;48.046;7.804;2023-08-17T06:43:42;20.10;99.90
19654;DHT22;9975;48.046;7.804;2023-08-17T06:46:08;20.10;99.90
19654;DHT22;9975;48.046;7.804;2023-08-17T06:48:33;20.10;99.90
19654;DHT22;9975;48.046;7.804;2023-08-17T06:50:59;20.20;99.90
19654;DHT22;9975;48.046;7.804;2023-08-17T06:53:25;20.20;99.90
19654;DHT22;9975;48.046;7.804;2023-08-17T06:55:50;20.20;99.90
19654;DHT22;9975;48.046;7.804;2023-08-17T06:58:16;20.40;99.90
19654;DHT22;9975;48.046;7.804;2023-08-17T07:00:41;20.30;99.90
19654;DHT22;9975;48.046;7.804;2023-08-17T07:03:09;20.30;99.90
19654;DHT22;9975;48.046;7.804;2023-08-17T07:05:34;20.40;99.90
19654;DHT22;9975;48.046;7.804;2023-08-17T07:08:00;20.50;99.90
19654;DHT22;9975;48.046;7.804;2023-08-17T07:10:27;20.50;99.90
19654;DHT22;9975;48.046;7.804;2023-08-17T07:12:52;20.50;99.90
19654;DHT22;9975;48.046;7.804;2023-08-17T07:15:18;20.60;99.90
19654;DHT22;9975;48.046;7.804;2023-08-17T07:17:44;20.60;99.90
19654;DHT22;9975;48.046;7.804;2023-08-17T07:20:10;20.70;99.90
19654;DHT22;9975;48.046;7.804;2023-08-17T07:22:37;20.80;99.90
19654;DHT22;9975;48.046;7.804;2023-08-17T07:25:02;20.80;99.90
19654;DHT22;9975;48.046;7.804;2023-08-17T07:27:29;20.80;99.90
19654;DHT22;9975;48.046;7.804;2023-08-17T07:29:54;20.70;99.90
19654;DHT22;9975;48.046;7.804;2023-08-17T07:32:20;20.70;99.90
19654;DHT22;9975;48.046;7.804;2023-08-17T07:34:47;20.70;99.90
19654;DHT22;9975;48.046;7.804;2023-08-17T07:37:12;20.70;99.90
19654;DHT22;9975;48.046;7.804;2023-08-17T07:39:38;20.80;99.90
19654;DHT22;9975;48.046;7.804;2023-08-17T07:42:04;20.90;99.90
19654;DHT22;9975;48.046;7.804;2023-08-17T07:44:30;20.90;99.90
19654;DHT22;9975;48.046;7.804;2023-08-17T07:46:57;20.90;99.90
19654;DHT22;9975;48.046;7.804;2023-08-17T07:49:23;20.20;99.90
19654;DHT22;9975;48.046;7.804;2023-08-17T07:51:49;20.90;99.90
19654;DHT22;9975;48.046;7.804;2023-08-17T07:54:15;21.00;99.90
19654;DHT22;9975;48.046;7.804;2023-08-17T07:56:41;20.90;99.90
19654;DHT22;9975;48.046;7.804;2023-08-17T07:59:06;20.80;99.90
19654;DHT22;9975;48.046;7.804;2023-08-17T08:01:32;20.80;99.90
19654;DHT22;9975;48.046;7.804;2023-08-17T08:03:57;20.90;99.90
19654;DHT22;9975;48.046;7.804;2023-08-17T08:06:23;21.00;99.90
19654;DHT22;9975;48.046;7.804;2023-08-17T08:08:49;21.00;99.90
19654;DHT22;9975;48.046;7.804;2023-08-17T08:11:14;20.90;99.90
19654;DHT22;9975;48.046;7.804;2023-08-17T08:13:40;20.80;99.90
19654;DHT22;9975;48.046;7.804;2023-08-17T08:16:06;20.90;99.90
19654;DHT22;9975;48.046;7.804;2023-08-17T08:18:31;20.80;99.90
19654;DHT22;9975;48.046;7.804;2023-08-17T08:20:57;20.90;99.90
19654;DHT22;9975;48.046;7.804;2023-08-17T08:23:22;20.90;99.90
19654;DHT22;9975;48.046;7.804;2023-08-17T08:25:48;21.10;99.90
19654;DHT22;9975;48.046;7.804;2023-08-17T08:28:14;21.10;99.90
19654;DHT22;9975;48.046;7.804;2023-08-17T08:30:39;21.10;99.90
19654;DHT22;9975;48.046;7.804;2023-08-17T08:33:05;21.00;99.90
19654;DHT22;9975;48.046;7.804;2023-08-17T08:35:31;20.90;99.90
19654;DHT22;9975;48.046;7.804;2023-08-17T08:37:58;21.10;99.90
19654;DHT22;9975;48.046;7.804;2023-08-17T08:40:28;21.10;99.90
19654;DHT22;9975;48.046;7.804;2023-08-17T08:42:54;21.10;99.90
19654;DHT22;9975;48.046;7.804;2023-08-17T08:45:21;21.10;99.90
19654;DHT22;9975;48.046;7.804;2023-08-17T08:47:48;21.10;99.90
19654;DHT22;9975;48.046;7.804;2023-08-17T08:50:19;21.20;99.90
19654;DHT22;9975;48.046;7.804;2023-08-17T08:52:57;21.30;99.90
19654;DHT22;9975;48.046;7.804;2023-08-17T08:55:24;21.30;99.90
19654;DHT22;9975;48.046;7.804;2023-08-17T08:57:52;21.40;99.90
19654;DHT22;9975;48.046;7.804;2023-08-17T09:00:19;21.50;99.90
19654;DHT22;9975;48.046;7.804;2023-08-17T09:02:45;21.50;99.90
19654;DHT22;9975;48.046;7.804;2023-08-17T09:05:11;21.40;99.90
19654;DHT22;9975;48.046;7.804;2023-08-17T09:07:38;21.40;99.90
19654;DHT22;9975;48.046;7.804;2023-08-17T09:10:05;21.50;99.90
19654;DHT22;9975;48.046;7.804;2023-08-17T09:12:31;21.50;99.90
19654;DHT22;9975;48.046;7.804;2023-08-17T09:14:57;21.50;99.90
19654;DHT22;9975;48.046;7.804;2023-08-17T09:17:26;21.40;99.90
19654;DHT22;9975;48.046;7.804;2023-08-17T09:19:52;21.60;99.90
19654;DHT22;9975;48.046;7.804;2023-08-17T09:22:25;21.80;99.90
19654;DHT22;9975;48.046;7.804;2023-08-17T09:24:51;21.90;99.90
19654;DHT22;9975;48.046;7.804;2023-08-17T09:27:17;22.00;99.90
19654;DHT22;9975;48.046;7.804;2023-08-17T09:29:43;22.10;99.90
19654;DHT22;9975;48.046;7.804;2023-08-17T09:32:11;22.10;99.90
19654;DHT22;9975;48.046;7.804;2023-08-17T09:34:42;22.20;99.90
19654;DHT22;9975;48.046;7.804;2023-08-17T09:37:08;22.20;99.90
19654;DHT22;9975;48.046;7.804;2023-08-17T09:39:33;22.40;99.90
19654;DHT22;9975;48.046;7.804;2023-08-17T09:42:00;22.40;99.90
19654;DHT22;9975;48.046;7.804;2023-08-17T09:44:26;22.60;99.90
19654;DHT22;9975;48.046;7.804;2023-08-17T09:46:54;22.80;99.90
19654;DHT22;9975;48.046;7.804;2023-08-17T09:49:20;22.80;99.90
19654;DHT22;9975;48.046;7.804;2023-08-17T09:51:48;22.90;99.90
19654;DHT22;9975;48.046;7.804;2023-08-17T09:54:27;23.10;99.90
19654;DHT22;9975;48.046;7.804;2023-08-17T09:56:57;23.60;99.90
19654;DHT22;9975;48.046;7.804;2023-08-17T09:59:23;23.90;99.90
19654;DHT22;9975;48.046;7.804;2023-08-17T10:01:50;24.10;99.90
19654;DHT22;9975;48.046;7.804;2023-08-17T10:04:21;24.40;99.90
19654;DHT22;9975;48.046;7.804;2023-08-17T10:07:03;24.70;99.90
19654;DHT22;9975;48.046;7.804;2023-08-17T10:09:36;24.80;99.90
19654;DHT22;9975;48.046;7.804;2023-08-17T10:12:12;25.30;99.90
19654;DHT22;9975;48.046;7.804;2023-08-17T10:14:48;25.60;99.90
19654;DHT22;9975;48.046;7.804;2023-08-17T10:17:19;25.90;99.90
19654;DHT22;9975;48.046;7.804;2023-08-17T10:19:50;26.00;99.90
19654;DHT22;9975;48.046;7.804;2023-08-17T10:25:02;26.60;99.90
19654;DHT22;9975;48.046;7.804;2023-08-17T10:27:29;26.80;99.90
19654;DHT22;9975;48.046;7.804;2023-08-17T10:29:54;27.00;99.90
19654;DHT22;9975;48.046;7.804;2023-08-17T10:32:24;27.30;99.90
19654;DHT22;9975;48.046;7.804;2023-08-17T10:34:51;27.60;99.90
19654;DHT22;9975;48.046;7.804;2023-08-17T10:37:18;27.80;99.90
19654;DHT22;9975;48.046;7.804;2023-08-17T10:39:48;28.10;99.90
19654;DHT22;9975;48.046;7.804;2023-08-17T10:42:14;28.20;99.90
19654;DHT22;9975;48.046;7.804;2023-08-17T10:44:41;28.40;99.90
19654;DHT22;9975;48.046;7.804;2023-08-17T10:47:32;28.70;99.90
19654;DHT22;9975;48.046;7.804;2023-08-17T10:50:03;29.10;99.90
19654;DHT22;9975;48.046;7.804;2023-08-17T10:52:34;29.30;98.20
19654;DHT22;9975;48.046;7.804;2023-08-17T10:55:08;29.60;97.40
19654;DHT22;9975;48.046;7.804;2023-08-17T10:57:43;29.70;95.60
19654;DHT22;9975;48.046;7.804;2023-08-17T11:00:22;30.10;95.20
19654;DHT22;9975;48.046;7.804;2023-08-17T11:02:59;30.20;93.60
19654;DHT22;9975;48.046;7.804;2023-08-17T11:05:50;30.80;92.10
19654;DHT22;9975;48.046;7.804;2023-08-17T11:08:39;31.20;91.00
19654;DHT22;9975;48.046;7.804;2023-08-17T11:11:06;31.10;86.70
19654;DHT22;9975;48.046;7.804;2023-08-17T11:13:37;31.10;84.20
19654;DHT22;9975;48.046;7.804;2023-08-17T11:16:04;30.80;83.20
19654;DHT22;9975;48.046;7.804;2023-08-17T11:18:33;31.00;79.80
19654;DHT22;9975;48.046;7.804;2023-08-17T11:21:00;31.30;79.10
19654;DHT22;9975;48.046;7.804;2023-08-17T11:23:28;31.80;77.10
19654;DHT22;9975;48.046;7.804;2023-08-17T11:25:54;32.10;75.20
19654;DHT22;9975;48.046;7.804;2023-08-17T11:28:21;32.10;70.70
19654;DHT22;9975;48.046;7.804;2023-08-17T11:31:00;32.20;64.80
19654;DHT22;9975;48.046;7.804;2023-08-17T11:33:26;32.30;60.60
19654;DHT22;9975;48.046;7.804;2023-08-17T11:35:55;32.60;56.50
19654;DHT22;9975;48.046;7.804;2023-08-17T11:38:20;32.60;53.50
19654;DHT22;9975;48.046;7.804;2023-08-17T11:40:46;33.00;52.10
19654;DHT22;9975;48.046;7.804;2023-08-17T11:43:12;33.00;50.70
19654;DHT22;9975;48.046;7.804;2023-08-17T11:45:39;33.20;51.70
19654;DHT22;9975;48.046;7.804;2023-08-17T11:48:05;33.30;49.80
19654;DHT22;9975;48.046;7.804;2023-08-17T11:50:31;33.40;49.00
19654;DHT22;9975;48.046;7.804;2023-08-17T11:52:59;32.80;46.90
19654;DHT22;9975;48.046;7.804;2023-08-17T11:55:26;33.10;47.50
19654;DHT22;9975;48.046;7.804;2023-08-17T11:57:52;33.30;45.80
19654;DHT22;9975;48.046;7.804;2023-08-17T12:00:22;33.30;45.90
19654;DHT22;9975;48.046;7.804;2023-08-17T12:02:52;33.00;46.10
19654;DHT22;9975;48.046;7.804;2023-08-17T12:05:24;33.50;44.50
19654;DHT22;9975;48.046;7.804;2023-08-17T12:07:50;33.80;44.00
19654;DHT22;9975;48.046;7.804;2023-08-17T12:10:18;33.80;43.90
19654;DHT22;9975;48.046;7.804;2023-08-17T12:12:47;34.20;44.20
19654;DHT22;9975;48.046;7.804;2023-08-17T12:15:18;34.90;41.40
19654;DHT22;9975;48.046;7.804;2023-08-17T12:17:46;34.90;42.00
19654;DHT22;9975;48.046;7.804;2023-08-17T12:20:21;34.70;41.80
19654;DHT22;9975;48.046;7.804;2023-08-17T12:22:47;34.90;39.00
19654;DHT22;9975;48.046;7.804;2023-08-17T12:25:13;34.30;40.50
19654;DHT22;9975;48.046;7.804;2023-08-17T12:27:39;34.60;38.40
19654;DHT22;9975;48.046;7.804;2023-08-17T12:30:12;34.80;38.90
19654;DHT22;9975;48.046;7.804;2023-08-17T12:32:38;34.90;37.90
19654;DHT22;9975;48.046;7.804;2023-08-17T12:35:04;34.80;36.50
19654;DHT22;9975;48.046;7.804;2023-08-17T12:37:30;34.50;36.40
19654;DHT22;9975;48.046;7.804;2023-08-17T12:39:55;34.20;37.40
19654;DHT22;9975;48.046;7.804;2023-08-17T12:42:21;34.00;36.10
19654;DHT22;9975;48.046;7.804;2023-08-17T12:44:47;33.90;36.40
19654;DHT22;9975;48.046;7.804;2023-08-17T12:47:12;33.50;38.20
19654;DHT22;9975;48.046;7.804;2023-08-17T12:49:38;33.40;38.60
19654;DHT22;9975;48.046;7.804;2023-08-17T12:52:04;33.50;38.80
19654;DHT22;9975;48.046;7.804;2023-08-17T12:54:29;33.00;38.70
19654;DHT22;9975;48.046;7.804;2023-08-17T12:56:55;33.00;41.00
19654;DHT22;9975;48.046;7.804;2023-08-17T12:59:20;33.00;40.60
19654;DHT22;9975;48.046;7.804;2023-08-17T13:01:46;32.80;40.20
19654;DHT22;9975;48.046;7.804;2023-08-17T13:04:12;32.30;40.70
19654;DHT22;9975;48.046;7.804;2023-08-17T13:06:38;32.10;41.60
19654;DHT22;9975;48.046;7.804;2023-08-17T13:09:04;32.10;43.00
19654;DHT22;9975;48.046;7.804;2023-08-17T13:11:31;32.30;42.20
19654;DHT22;9975;48.046;7.804;2023-08-17T13:13:57;32.30;43.90
19654;DHT22;9975;48.046;7.804;2023-08-17T13:16:23;31.90;43.50
19654;DHT22;9975;48.046;7.804;2023-08-17T13:18:48;32.40;44.30
19654;DHT22;9975;48.046;7.804;2023-08-17T13:21:14;33.00;43.10
19654;DHT22;9975;48.046;7.804;2023-08-17T13:23:41;33.10;43.40
19654;DHT22;9975;48.046;7.804;2023-08-17T13:26:07;33.60;42.30
19654;DHT22;9975;48.046;7.804;2023-08-17T13:28:32;34.20;41.20
19654;DHT22;9975;48.046;7.804;2023-08-17T13:30:58;34.50;40.60
19654;DHT22;9975;48.046;7.804;2023-08-17T13:33:24;34.80;40.30
19654;DHT22;9975;48.046;7.804;2023-08-17T13:35:50;34.90;38.90
19654;DHT22;9975;48.046;7.804;2023-08-17T13:38:16;35.30;40.20
19654;DHT22;9975;48.046;7.804;2023-08-17T13:40:42;34.90;37.70
19654;DHT22;9975;48.046;7.804;2023-08-17T13:43:07;34.90;37.10
19654;DHT22;9975;48.046;7.804;2023-08-17T13:45:40;34.70;38.40
19654;DHT22;9975;48.046;7.804;2023-08-17T13:48:07;34.80;38.80
19654;DHT22;9975;48.046;7.804;2023-08-17T13:50:34;34.90;39.70
19654;DHT22;9975;48.046;7.804;2023-08-17T13:53:00;35.10;38.10
19654;DHT22;9975;48.046;7.804;2023-08-17T13:55:26;35.20;38.00
19654;DHT22;9975;48.046;7.804;2023-08-17T13:57:59;35.30;37.80
19654;DHT22;9975;48.046;7.804;2023-08-17T14:00:26;35.40;37.10
19654;DHT22;9975;48.046;7.804;2023-08-17T14:02:52;35.50;37.30
19654;DHT22;9975;48.046;7.804;2023-08-17T14:05:18;35.20;35.80
19654;DHT22;9975;48.046;7.804;2023-08-17T14:07:43;35.20;38.10
19654;DHT22;9975;48.046;7.804;2023-08-17T14:10:09;35.30;38.00
19654;DHT22;9975;48.046;7.804;2023-08-17T14:12:35;35.30;37.50
19654;DHT22;9975;48.046;7.804;2023-08-17T14:15:00;35.10;37.70
19654;DHT22;9975;48.046;7.804;2023-08-17T14:17:26;35.20;37.90
19654;DHT22;9975;48.046;7.804;2023-08-17T14:19:52;35.00;37.30
19654;DHT22;9975;48.046;7.804;2023-08-17T14:22:17;34.40;38.30
19654;DHT22;9975;48.046;7.804;2023-08-17T14:24:43;34.30;38.20
19654;DHT22;9975;48.046;7.804;2023-08-17T14:27:09;34.40;38.60
19654;DHT22;9975;48.046;7.804;2023-08-17T14:29:34;34.10;38.20
19654;DHT22;9975;48.046;7.804;2023-08-17T14:32:00;33.60;39.40
19654;DHT22;9975;48.046;7.804;2023-08-17T14:34:25;33.90;39.40
19654;DHT22;9975;48.046;7.804;2023-08-17T14:36:51;33.70;38.70
19654;DHT22;9975;48.046;7.804;2023-08-17T14:39:17;33.80;41.00
19654;DHT22;9975;48.046;7.804;2023-08-17T14:41:42;33.90;40.10
19654;DHT22;9975;48.046;7.804;2023-08-17T14:44:08;33.90;40.50
19654;DHT22;9975;48.046;7.804;2023-08-17T14:46:34;33.90;40.70
19654;DHT22;9975;48.046;7.804;2023-08-17T14:49:00;33.90;41.00
19654;DHT22;9975;48.046;7.804;2023-08-17T14:51:25;33.80;41.10
19654;DHT22;9975;48.046;7.804;2023-08-17T14:53:51;33.80;41.60
19654;DHT22;9975;48.046;7.804;2023-08-17T14:56:17;33.70;42.30
19654;DHT22;9975;48.046;7.804;2023-08-17T14:58:42;34.10;41.70
19654;DHT22;9975;48.046;7.804;2023-08-17T15:01:08;34.50;40.50
19654;DHT22;9975;48.046;7.804;2023-08-17T15:03:33;34.20;41.10
19654;DHT22;9975;48.046;7.804;2023-08-17T15:05:59;34.40;41.40
19654;DHT22;9975;48.046;7.804;2023-08-17T15:08:25;34.50;38.50
19654;DHT22;9975;48.046;7.804;2023-08-17T15:10:50;34.20;37.80
19654;DHT22;9975;48.046;7.804;2023-08-17T15:13:16;33.90;38.90
19654;DHT22;9975;48.046;7.804;2023-08-17T15:15:43;33.80;40.30
19654;DHT22;9975;48.046;7.804;2023-08-17T15:18:09;33.50;39.50
19654;DHT22;9975;48.046;7.804;2023-08-17T15:20:35;33.40;40.70
19654;DHT22;9975;48.046;7.804;2023-08-17T15:23:01;33.20;41.80
19654;DHT22;9975;48.046;7.804;2023-08-17T15:25:26;33.00;41.50
19654;DHT22;9975;48.046;7.804;2023-08-17T15:27:52;32.80;41.40
19654;DHT22;9975;48.046;7.804;2023-08-17T15:30:18;32.70;42.20
19654;DHT22;9975;48.046;7.804;2023-08-17T15:32:43;32.50;46.60
19654;DHT22;9975;48.046;7.804;2023-08-17T15:35:11;32.50;47.10
19654;DHT22;9975;48.046;7.804;2023-08-17T15:37:40;32.40;46.80
19654;DHT22;9975;48.046;7.804;2023-08-17T15:40:06;32.30;48.10
19654;DHT22;9975;48.046;7.804;2023-08-17T15:42:33;32.20;48.80
19654;DHT22;9975;48.046;7.804;2023-08-17T15:44:59;31.90;50.50
19654;DHT22;9975;48.046;7.804;2023-08-17T15:47:24;31.80;51.10
19654;DHT22;9975;48.046;7.804;2023-08-17T15:49:50;31.80;51.60
19654;DHT22;9975;48.046;7.804;2023-08-17T15:52:16;31.70;52.30
19654;DHT22;9975;48.046;7.804;2023-08-17T15:54:41;31.60;51.60
19654;DHT22;9975;48.046;7.804;2023-08-17T15:57:07;31.50;53.60
19654;DHT22;9975;48.046;7.804;2023-08-17T15:59:33;31.50;53.90
19654;DHT22;9975;48.046;7.804;2023-08-17T16:01:58;31.40;53.80
19654;DHT22;9975;48.046;7.804;2023-08-17T16:04:24;31.30;55.80
19654;DHT22;9975;48.046;7.804;2023-08-17T16:06:50;31.10;56.90
19654;DHT22;9975;48.046;7.804;2023-08-17T16:09:15;31.00;56.60
19654;DHT22;9975;48.046;7.804;2023-08-17T16:11:41;30.90;56.70
19654;DHT22;9975;48.046;7.804;2023-08-17T16:14:06;30.90;55.00
19654;DHT22;9975;48.046;7.804;2023-08-17T16:16:32;30.90;53.20
19654;DHT22;9975;48.046;7.804;2023-08-17T16:18:58;30.90;56.40
19654;DHT22;9975;48.046;7.804;2023-08-17T16:21:23;31.10;57.10
19654;DHT22;9975;48.046;7.804;2023-08-17T16:23:49;31.10;57.70
19654;DHT22;9975;48.046;7.804;2023-08-17T16:26:15;31.30;58.00
19654;DHT22;9975;48.046;7.804;2023-08-17T16:28:40;31.30;54.50
19654;DHT22;9975;48.046;7.804;2023-08-17T16:31:06;31.40;50.60
19654;DHT22;9975;48.046;7.804;2023-08-17T16:33:32;31.50;51.30
19654;DHT22;9975;48.046;7.804;2023-08-17T16:35:57;31.40;51.40
19654;DHT22;9975;48.046;7.804;2023-08-17T16:38:23;31.50;52.10
19654;DHT22;9975;48.046;7.804;2023-08-17T16:40:49;31.40;52.00
19654;DHT22;9975;48.046;7.804;2023-08-17T16:43:15;31.50;51.20
19654;DHT22;9975;48.046;7.804;2023-08-17T16:45:41;31.40;51.30
19654;DHT22;9975;48.046;7.804;2023-08-17T16:48:06;31.30;53.50
19654;DHT22;9975;48.046;7.804;2023-08-17T16:50:32;31.30;55.00
19654;DHT22;9975;48.046;7.804;2023-08-17T16:52:58;31.20;54.10
19654;DHT22;9975;48.046;7.804;2023-08-17T16:55:23;31.20;55.30
19654;DHT22;9975;48.046;7.804;2023-08-17T16:57:49;31.20;54.90
19654;DHT22;9975;48.046;7.804;2023-08-17T17:00:15;31.20;56.70
19654;DHT22;9975;48.046;7.804;2023-08-17T17:02:41;31.10;56.40
19654;DHT22;9975;48.046;7.804;2023-08-17T17:05:07;31.10;56.50
19654;DHT22;9975;48.046;7.804;2023-08-17T17:07:32;31.10;56.90
19654;DHT22;9975;48.046;7.804;2023-08-17T17:09:58;31.00;55.30
19654;DHT22;9975;48.046;7.804;2023-08-17T17:14:49;30.80;55.80
19654;DHT22;9975;48.046;7.804;2023-08-17T17:17:15;30.80;56.80
19654;DHT22;9975;48.046;7.804;2023-08-17T17:19:41;30.60;56.90
19654;DHT22;9975;48.046;7.804;2023-08-17T17:22:06;30.60;57.30
19654;DHT22;9975;48.046;7.804;2023-08-17T17:24:32;30.50;57.40
19654;DHT22;9975;48.046;7.804;2023-08-17T17:26:58;30.30;57.80
19654;DHT22;9975;48.046;7.804;2023-08-17T17:29:24;30.20;59.00
19654;DHT22;9975;48.046;7.804;2023-08-17T17:31:50;30.20;58.70
19654;DHT22;9975;48.046;7.804;2023-08-17T17:34:16;30.20;59.20
19654;DHT22;9975;48.046;7.804;2023-08-17T17:36:41;30.20;59.80
19654;DHT22;9975;48.046;7.804;2023-08-17T17:39:07;30.10;59.40
19654;DHT22;9975;48.046;7.804;2023-08-17T17:41:33;30.10;59.70